createdAt,value
2019-03-19T00:02:10.996Z,7.50
2019-03-19T00:04:43.734Z,9.10
2019-03-19T00:07:16.909Z,11.27
2019-03-19T00:09:49.798Z,9.70
2019-03-19T00:12:22.665Z,10.17
2019-03-19T00:14:55.641Z,8.73
2019-03-19T00:17:28.599Z,8.77
2019-03-19T00:20:01.561Z,8.83
2019-03-19T00:22:34.639Z,8.70
2019-03-19T00:25:07.740Z,6.87
2019-03-19T00:27:40.716Z,5.47
2019-03-19T00:30:13.746Z,5.80
2019-03-19T00:32:46.697Z,6.30
2019-03-19T00:35:19.536Z,6.07
2019-03-19T00:37:52.396Z,6.37
2019-03-19T00:40:25.392Z,5.03
2019-03-19T00:42:58.554Z,5.57
2019-03-19T00:45:31.686Z,5.90
2019-03-19T00:48:04.611Z,5.23
2019-03-19T00:50:37.747Z,6.37
2019-03-19T00:53:10.700Z,7.00
2019-03-19T00:55:43.492Z,5.47
2019-03-19T00:58:16.328Z,6.47
2019-03-19T01:00:49.122Z,6.47
2019-03-19T01:03:22.167Z,6.10
2019-03-19T01:05:54.936Z,8.73
2019-03-19T01:08:27.796Z,10.10
2019-03-19T01:11:00.680Z,10.03
2019-03-19T01:13:33.502Z,8.97
2019-03-19T01:16:06.526Z,7.77
2019-03-19T01:18:39.569Z,6.83
2019-03-19T01:21:12.452Z,7.40
2019-03-19T01:23:45.571Z,6.57
2019-03-19T01:26:18.911Z,6.93
2019-03-19T01:28:51.841Z,6.93
2019-03-19T01:31:24.797Z,6.40
2019-03-19T01:33:58.131Z,6.50
2019-03-19T01:36:31.126Z,6.67
2019-03-19T01:39:05.587Z,6.80
2019-03-19T01:41:38.563Z,6.07
2019-03-19T01:44:12.370Z,5.97
2019-03-19T01:46:45.521Z,6.10
2019-03-19T01:49:18.736Z,10.27
2019-03-19T01:51:51.588Z,7.10
2019-03-19T01:54:24.515Z,5.83
2019-03-19T01:56:57.457Z,7.53
2019-03-19T01:59:30.302Z,7.90
2019-03-19T02:02:03.432Z,7.10
2019-03-19T02:04:36.233Z,7.73
2019-03-19T02:07:09.136Z,7.30
2019-03-19T02:09:42.029Z,6.13
2019-03-19T02:12:15.040Z,6.67
2019-03-19T02:14:48.271Z,7.70
2019-03-19T02:17:21.386Z,7.17
2019-03-19T02:19:54.477Z,8.90
2019-03-19T02:22:27.332Z,9.00
2019-03-19T02:25:00.444Z,8.53
2019-03-19T02:27:33.498Z,8.60
2019-03-19T02:30:07.817Z,8.07
2019-03-19T02:32:40.735Z,8.50
2019-03-19T02:35:13.684Z,8.90
2019-03-19T02:37:46.592Z,8.50
2019-03-19T02:40:19.540Z,7.47
2019-03-19T02:42:52.471Z,6.33
2019-03-19T02:45:25.388Z,7.17
2019-03-19T02:47:58.414Z,8.00
2019-03-19T02:50:31.203Z,8.03
2019-03-19T02:53:04.030Z,7.83
2019-03-19T02:55:36.877Z,6.80
2019-03-19T02:58:09.731Z,7.80
2019-03-19T03:00:42.689Z,7.43
2019-03-19T03:03:16.475Z,8.63
2019-03-19T03:05:49.271Z,10.27
2019-03-19T03:08:22.176Z,10.57
2019-03-19T03:10:55.117Z,11.43
2019-03-19T03:13:28.065Z,9.83
2019-03-19T03:16:01.129Z,9.23
2019-03-19T03:18:34.165Z,10.33
2019-03-19T03:21:06.984Z,8.77
2019-03-19T03:23:39.959Z,9.43
2019-03-19T03:26:12.840Z,8.70
2019-03-19T03:28:45.711Z,8.87
2019-03-19T03:31:18.788Z,8.13
2019-03-19T03:33:51.746Z,11.80
2019-03-19T03:36:24.664Z,12.50
2019-03-19T03:38:57.803Z,11.27
2019-03-19T03:41:31.229Z,10.20
2019-03-19T03:44:04.911Z,9.13
2019-03-19T03:46:37.716Z,9.47
2019-03-19T03:49:10.636Z,10.67
2019-03-19T03:51:43.627Z,9.83
2019-03-19T03:54:16.579Z,8.97
2019-03-19T03:57:01.170Z,8.47
2019-03-19T03:59:24.422Z,10.67
2019-03-19T04:01:57.692Z,10.07
2019-03-19T04:04:30.825Z,9.37
2019-03-19T04:07:03.859Z,8.47
2019-03-19T04:09:36.983Z,10.37
2019-03-19T04:12:09.876Z,10.27
2019-03-19T04:14:42.871Z,10.33
2019-03-19T04:17:15.798Z,10.00
2019-03-19T04:19:48.640Z,10.47
2019-03-19T04:22:21.659Z,14.77
2019-03-19T04:24:54.401Z,12.27
2019-03-19T04:27:27.328Z,12.33
2019-03-19T04:30:00.565Z,11.73
2019-03-19T04:32:33.553Z,11.50
2019-03-19T04:35:06.672Z,11.03
2019-03-19T04:37:39.915Z,10.57
2019-03-19T04:40:12.870Z,11.93
2019-03-19T04:42:46.049Z,12.63
2019-03-19T04:45:19.099Z,11.97
2019-03-19T04:47:52.342Z,11.13
2019-03-19T04:50:25.269Z,12.40
2019-03-19T04:52:58.096Z,12.37
2019-03-19T04:55:31.043Z,11.50
2019-03-19T04:58:04.098Z,11.77
2019-03-19T05:00:37.193Z,12.77
2019-03-19T05:03:10.308Z,13.53
2019-03-19T05:05:43.303Z,13.67
2019-03-19T05:08:16.395Z,12.60
2019-03-19T05:10:49.410Z,14.70
2019-03-19T05:13:22.244Z,16.17
2019-03-19T05:15:56.340Z,15.50
2019-03-19T05:18:31.295Z,15.03
2019-03-19T05:21:04.057Z,15.30
2019-03-19T05:23:36.913Z,14.13
2019-03-19T05:26:09.731Z,13.47
2019-03-19T05:28:42.535Z,14.83
2019-03-19T05:31:15.873Z,14.37
2019-03-19T05:33:48.996Z,14.97
2019-03-19T05:36:21.995Z,19.13
2019-03-19T05:38:55.001Z,16.73
2019-03-19T05:41:28.051Z,15.97
2019-03-19T05:44:01.156Z,16.37
2019-03-19T05:46:34.075Z,17.10
2019-03-19T05:49:07.037Z,16.33
2019-03-19T05:51:40.015Z,16.83
2019-03-19T05:54:12.981Z,15.27
2019-03-19T05:56:45.894Z,16.03
2019-03-19T05:59:18.862Z,17.27
2019-03-19T06:01:51.814Z,14.60
2019-03-19T06:04:24.846Z,14.43
2019-03-19T06:06:57.820Z,13.23
2019-03-19T06:09:30.894Z,14.23
2019-03-19T06:12:03.656Z,15.50
2019-03-19T06:14:37.075Z,16.80
2019-03-19T06:17:10.100Z,14.80
2019-03-19T06:19:43.091Z,13.47
2019-03-19T06:22:16.061Z,13.23
2019-03-19T06:24:49.201Z,14.63
2019-03-19T06:27:22.011Z,12.90
2019-03-19T06:29:55.225Z,13.67
2019-03-19T06:32:28.271Z,14.90
2019-03-19T06:35:03.383Z,13.83
2019-03-19T06:37:36.510Z,13.67
2019-03-19T06:40:11.575Z,13.47
2019-03-19T06:42:44.661Z,13.53
2019-03-19T06:45:17.764Z,12.63
2019-03-19T06:47:50.507Z,12.57
2019-03-19T06:50:23.619Z,12.20
2019-03-19T06:52:56.616Z,12.37
2019-03-19T06:55:29.486Z,12.13
2019-03-19T06:58:10.486Z,12.33
2019-03-19T07:00:37.273Z,11.93
2019-03-19T07:03:10.302Z,14.03
2019-03-19T07:05:43.255Z,12.23
2019-03-19T07:08:16.125Z,13.10
2019-03-19T07:10:49.146Z,14.33
2019-03-19T07:13:22.010Z,11.07
2019-03-19T07:15:56.151Z,11.27
2019-03-19T07:18:30.339Z,10.47
2019-03-19T07:21:03.459Z,10.53
2019-03-19T07:23:36.643Z,12.23
2019-03-19T07:26:09.677Z,9.77
2019-03-19T07:28:42.721Z,10.13
2019-03-19T07:31:15.832Z,10.70
2019-03-19T07:33:48.798Z,10.83
2019-03-19T07:36:21.701Z,9.87
2019-03-19T07:38:54.551Z,10.03
2019-03-19T07:41:27.562Z,10.07
2019-03-19T07:44:00.760Z,9.60
2019-03-19T07:46:33.716Z,10.87
2019-03-19T07:49:06.853Z,9.97
2019-03-19T07:51:39.648Z,9.70
2019-03-19T07:54:12.626Z,11.40
2019-03-19T07:56:45.495Z,9.57
2019-03-19T07:59:18.471Z,9.70
2019-03-19T08:01:52.523Z,10.63
2019-03-19T08:04:25.578Z,10.43
2019-03-19T08:06:58.820Z,9.40
2019-03-19T08:09:32.313Z,10.57
2019-03-19T08:12:05.362Z,9.43
2019-03-19T08:14:38.371Z,9.70
2019-03-19T08:17:11.451Z,9.63
2019-03-19T08:19:44.572Z,10.20
2019-03-19T08:22:17.644Z,11.00
2019-03-19T08:24:50.726Z,10.33
2019-03-19T08:27:24.742Z,10.43
2019-03-19T08:29:57.540Z,9.37
2019-03-19T08:32:30.652Z,10.55
2019-03-19T08:35:03.982Z,11.95
2019-03-19T08:37:36.932Z,9.80
2019-03-19T08:40:11.208Z,9.63
2019-03-19T08:42:44.211Z,9.33
2019-03-19T08:45:17.229Z,9.70
2019-03-19T08:47:50.077Z,9.07
2019-03-19T08:50:23.203Z,9.13
2019-03-19T08:52:56.234Z,9.47
2019-03-19T08:55:29.783Z,9.77
2019-03-19T08:58:02.778Z,10.00
2019-03-19T09:00:40.558Z,9.27
2019-03-19T09:03:13.913Z,9.27
2019-03-19T09:05:47.779Z,8.40
2019-03-19T09:08:21.838Z,7.70
2019-03-19T09:10:54.892Z,6.63
2019-03-19T09:13:28.207Z,6.57
2019-03-19T09:16:01.095Z,6.93
2019-03-19T09:18:34.068Z,7.83
2019-03-19T09:21:06.873Z,8.17
2019-03-19T09:23:40.003Z,6.60
2019-03-19T09:26:13.026Z,7.60
2019-03-19T09:28:45.895Z,7.27
2019-03-19T09:31:18.916Z,7.13
2019-03-19T09:33:51.855Z,6.83
2019-03-19T09:36:24.874Z,6.20
2019-03-19T09:38:58.170Z,5.10
2019-03-19T09:41:31.925Z,6.45
2019-03-19T09:44:04.974Z,5.27
2019-03-19T09:46:38.066Z,4.85
2019-03-19T09:49:11.039Z,4.80
2019-03-19T09:51:44.189Z,5.22
2019-03-19T09:54:17.019Z,4.90
2019-03-19T09:56:50.060Z,4.35
2019-03-19T09:59:27.209Z,4.65
2019-03-19T10:01:58.298Z,4.62
2019-03-19T10:04:31.493Z,4.75
2019-03-19T10:07:06.362Z,4.00
2019-03-19T10:09:40.159Z,4.12
2019-03-19T10:12:14.200Z,3.92
2019-03-19T10:14:47.015Z,3.27
2019-03-19T10:17:19.945Z,3.47
2019-03-19T10:19:52.823Z,3.95
2019-03-19T10:22:26.585Z,4.42
2019-03-19T10:24:59.740Z,3.72
2019-03-19T10:27:32.729Z,3.20
2019-03-19T10:30:09.461Z,4.30
2019-03-19T10:32:42.727Z,4.55
2019-03-19T10:35:16.182Z,3.55
2019-03-19T10:37:49.253Z,4.12
2019-03-19T10:40:22.351Z,6.78
2019-03-19T10:42:55.265Z,3.25
2019-03-19T10:45:28.279Z,3.25
2019-03-19T10:48:01.139Z,3.62
2019-03-19T10:50:34.212Z,4.45
2019-03-19T10:53:07.337Z,3.20
2019-03-19T10:55:40.213Z,3.85
2019-03-19T10:58:13.191Z,3.67
2019-03-19T11:00:46.119Z,3.95
2019-03-19T11:03:19.104Z,3.52
2019-03-19T11:05:51.923Z,3.98
2019-03-19T11:08:25.019Z,3.62
2019-03-19T11:10:57.770Z,8.90
2019-03-19T11:13:30.714Z,3.65
2019-03-19T11:16:03.781Z,4.40
2019-03-19T11:18:36.780Z,3.80
2019-03-19T11:21:12.332Z,3.58
2019-03-19T11:23:46.304Z,4.00
2019-03-19T11:26:19.335Z,3.90
2019-03-19T11:28:52.954Z,4.17
2019-03-19T11:31:26.059Z,9.13
2019-03-19T11:33:59.137Z,4.03
2019-03-19T11:36:32.059Z,3.58
2019-03-19T11:39:08.014Z,3.58
2019-03-19T11:41:41.304Z,3.67
2019-03-19T11:44:14.311Z,4.12
2019-03-19T11:46:47.475Z,3.62
2019-03-19T11:49:20.525Z,3.33
2019-03-19T11:51:53.622Z,4.45
2019-03-19T11:54:26.841Z,4.22
2019-03-19T11:57:00.717Z,4.70
2019-03-19T11:59:34.588Z,3.77
2019-03-19T12:02:07.565Z,3.20
2019-03-19T12:04:40.453Z,3.72
2019-03-19T12:07:13.578Z,4.05
2019-03-19T12:09:46.651Z,3.90
2019-03-19T12:12:19.627Z,4.15
2019-03-19T12:14:55.511Z,4.28
2019-03-19T12:17:28.521Z,4.42
2019-03-19T12:20:01.562Z,4.72
2019-03-19T12:22:34.575Z,3.30
2019-03-19T12:25:07.735Z,3.90
2019-03-19T12:27:40.700Z,4.47
2019-03-19T12:30:21.764Z,4.78
2019-03-19T12:32:49.347Z,3.75
2019-03-19T12:35:22.589Z,3.42
2019-03-19T12:37:55.711Z,4.03
2019-03-19T12:40:36.770Z,5.25
2019-03-19T12:43:04.466Z,4.92
2019-03-19T12:45:37.582Z,3.77
2019-03-19T12:48:10.609Z,4.20
2019-03-19T12:50:43.585Z,4.17
2019-03-19T12:53:16.867Z,4.35
2019-03-19T12:55:49.706Z,4.00
2019-03-19T12:58:22.751Z,4.08
2019-03-19T13:00:55.897Z,3.70
2019-03-19T13:03:29.019Z,4.42
2019-03-19T13:06:01.896Z,11.25
2019-03-19T13:08:35.056Z,36.55
2019-03-19T13:11:08.150Z,6.37
2019-03-19T13:13:41.331Z,4.65
2019-03-19T13:16:14.223Z,5.28
2019-03-19T13:18:47.171Z,3.98
2019-03-19T13:21:20.200Z,8.98
2019-03-19T13:23:53.176Z,4.00
2019-03-19T13:26:26.483Z,6.12
2019-03-19T13:28:59.327Z,3.42
2019-03-19T13:31:32.357Z,3.55
2019-03-19T13:34:05.342Z,3.98
2019-03-19T13:36:38.407Z,3.12
2019-03-19T13:39:11.215Z,3.08
2019-03-19T13:41:44.049Z,3.35
2019-03-19T13:44:16.971Z,3.85
2019-03-19T13:46:49.964Z,3.45
2019-03-19T13:49:22.920Z,3.22
2019-03-19T13:51:55.867Z,3.85
2019-03-19T13:54:28.963Z,3.60
2019-03-19T13:57:02.216Z,3.08
2019-03-19T13:59:36.176Z,3.30
2019-03-19T14:02:09.262Z,3.00
2019-03-19T14:04:43.716Z,3.70
2019-03-19T14:07:16.807Z,3.72
2019-03-19T14:09:49.686Z,3.12
2019-03-19T14:12:22.542Z,3.47
2019-03-19T14:14:55.713Z,3.80
2019-03-19T14:17:28.817Z,4.03
2019-03-19T14:20:01.713Z,3.35
2019-03-19T14:22:35.771Z,4.20
2019-03-19T14:25:09.261Z,4.35
2019-03-19T14:27:42.557Z,3.90
2019-03-19T14:30:16.489Z,3.30
2019-03-19T14:32:49.502Z,3.70
2019-03-19T14:35:36.598Z,3.75
2019-03-19T14:38:00.998Z,3.92
2019-03-19T14:40:34.282Z,3.35
2019-03-19T14:43:07.424Z,3.58
2019-03-19T14:45:40.470Z,3.25
2019-03-19T14:48:13.524Z,3.15
2019-03-19T14:50:46.563Z,3.55
2019-03-19T14:53:19.763Z,3.60
2019-03-19T14:55:54.591Z,3.22
2019-03-19T14:58:28.553Z,3.45
2019-03-19T15:01:01.623Z,2.98
2019-03-19T15:03:34.603Z,3.65
2019-03-19T15:06:07.853Z,3.20
2019-03-19T15:09:00.133Z,4.08
2019-03-19T15:11:33.033Z,4.00
2019-03-19T15:14:06.307Z,3.50
2019-03-19T15:16:39.408Z,3.40
2019-03-19T15:19:12.479Z,3.52
2019-03-19T15:21:53.098Z,4.45
2019-03-19T15:24:26.109Z,4.58
2019-03-19T15:26:59.073Z,3.40
2019-03-19T15:29:31.977Z,3.20
2019-03-19T15:32:04.936Z,2.72
2019-03-19T15:34:38.834Z,2.80
2019-03-19T15:37:11.780Z,3.60
2019-03-19T15:39:44.714Z,3.50
2019-03-19T15:42:17.558Z,3.58
2019-03-19T15:44:50.570Z,3.17
2019-03-19T15:47:23.598Z,3.12
2019-03-19T15:49:56.569Z,3.58
2019-03-19T15:52:29.572Z,4.08
2019-03-19T15:55:02.547Z,15.35
2019-03-19T15:57:35.343Z,7.55
2019-03-19T16:00:11.459Z,14.03
2019-03-19T16:02:44.650Z,3.62
2019-03-19T16:05:17.795Z,3.87
2019-03-19T16:07:50.655Z,3.15
2019-03-19T16:10:23.618Z,3.25
2019-03-19T16:12:56.675Z,3.58
2019-03-19T16:15:29.745Z,3.42
2019-03-19T16:18:02.844Z,3.08
2019-03-19T16:20:36.048Z,3.60
2019-03-19T16:23:09.259Z,3.62
2019-03-19T16:25:42.449Z,3.33
2019-03-19T16:28:15.275Z,3.65
2019-03-19T16:30:48.319Z,4.08
2019-03-19T16:33:21.680Z,25.65
2019-03-19T16:35:54.598Z,6.45
2019-03-19T16:38:27.584Z,3.40
2019-03-19T16:41:01.031Z,4.85
2019-03-19T16:43:34.425Z,3.70
2019-03-19T16:46:07.344Z,4.10
2019-03-19T16:48:49.345Z,3.12
2019-03-19T16:51:22.237Z,3.72
2019-03-19T16:53:55.074Z,3.47
2019-03-19T16:56:27.929Z,4.10
2019-03-19T16:59:00.994Z,4.62
2019-03-19T17:01:34.099Z,4.22
2019-03-19T17:04:06.986Z,4.08
2019-03-19T17:06:39.879Z,4.17
2019-03-19T17:09:12.845Z,4.28
2019-03-19T17:11:45.619Z,4.60
2019-03-19T17:14:18.773Z,4.90
2019-03-19T17:16:51.956Z,4.23
2019-03-19T17:19:25.071Z,4.57
2019-03-19T17:21:58.010Z,4.50
2019-03-19T17:24:31.051Z,4.10
2019-03-19T17:27:06.136Z,4.03
2019-03-19T17:29:39.124Z,4.53
2019-03-19T17:32:13.112Z,4.93
2019-03-19T17:34:46.596Z,4.87
2019-03-19T17:37:19.605Z,5.97
2019-03-19T17:39:52.335Z,4.83
2019-03-19T17:42:25.165Z,5.37
2019-03-19T17:44:58.041Z,5.10
2019-03-19T17:47:30.959Z,4.70
2019-03-19T17:50:05.614Z,4.70
2019-03-19T17:52:38.590Z,4.50
2019-03-19T17:55:11.551Z,4.57
2019-03-19T17:57:44.527Z,5.30
2019-03-19T18:00:21.513Z,6.90
2019-03-19T18:02:54.635Z,6.17
2019-03-19T18:05:27.731Z,8.20
2019-03-19T18:08:01.056Z,7.03
2019-03-19T18:10:33.949Z,6.83
2019-03-19T18:13:07.171Z,6.90
2019-03-19T18:15:40.192Z,7.27
2019-03-19T18:18:13.185Z,8.13
2019-03-19T18:20:46.213Z,8.30
2019-03-19T18:23:19.468Z,9.13
2019-03-19T18:25:52.685Z,9.63
2019-03-19T18:28:25.617Z,11.23
2019-03-19T18:30:58.775Z,12.07
2019-03-19T18:33:32.036Z,12.43
2019-03-19T18:36:05.112Z,13.67
2019-03-19T18:38:38.157Z,10.47
2019-03-19T18:41:11.088Z,10.77
2019-03-19T18:43:44.021Z,12.57
2019-03-19T18:46:17.325Z,10.93
2019-03-19T18:48:50.146Z,9.70
2019-03-19T18:51:23.179Z,8.40
2019-03-19T18:53:56.197Z,7.47
2019-03-19T18:56:29.303Z,6.80
2019-03-19T18:59:02.510Z,8.37
2019-03-19T19:01:36.776Z,9.90
2019-03-19T19:04:09.712Z,11.50
2019-03-19T19:06:42.730Z,9.23
2019-03-19T19:09:15.643Z,8.83
2019-03-19T19:11:48.728Z,7.90
2019-03-19T19:14:21.699Z,7.83
2019-03-19T19:16:54.734Z,7.67
2019-03-19T19:19:27.803Z,9.50
2019-03-19T19:22:00.887Z,8.83
2019-03-19T19:24:33.967Z,11.67
2019-03-19T19:27:07.908Z,10.80
2019-03-19T19:29:40.898Z,11.07
2019-03-19T19:32:13.903Z,10.40
2019-03-19T19:34:46.817Z,10.40
2019-03-19T19:37:20.146Z,9.87
2019-03-19T19:39:53.471Z,11.23
2019-03-19T19:42:26.465Z,13.10
2019-03-19T19:44:59.530Z,12.77
2019-03-19T19:47:32.563Z,11.50
2019-03-19T19:50:06.840Z,10.80
2019-03-19T19:52:39.861Z,11.13
2019-03-19T19:55:13.305Z,12.10
2019-03-19T19:57:46.844Z,12.77
2019-03-19T20:00:20.151Z,12.77
2019-03-19T20:02:53.166Z,12.73
2019-03-19T20:05:26.334Z,13.57
2019-03-19T20:07:59.428Z,15.37
2019-03-19T20:10:32.364Z,18.97
2019-03-19T20:13:05.333Z,23.47
2019-03-19T20:15:38.213Z,19.90
2019-03-19T20:18:11.218Z,18.20
2019-03-19T20:20:44.462Z,17.20
2019-03-19T20:23:17.589Z,15.03
2019-03-19T20:25:50.573Z,13.70
2019-03-19T20:28:23.690Z,13.13
2019-03-19T20:30:56.731Z,12.47
2019-03-19T20:33:29.762Z,11.97
2019-03-19T20:36:03.792Z,11.60
2019-03-19T20:38:36.938Z,11.50
2019-03-19T20:41:10.428Z,11.57
2019-03-19T20:43:43.452Z,10.30
2019-03-19T20:46:16.941Z,10.13
2019-03-19T20:48:50.043Z,13.33
2019-03-19T20:51:22.889Z,10.27
2019-03-19T20:53:56.204Z,10.50
2019-03-19T20:56:29.262Z,9.60
2019-03-19T20:59:02.409Z,9.53
2019-03-19T21:01:35.239Z,9.37
2019-03-19T21:04:08.303Z,8.60
2019-03-19T21:06:41.189Z,7.80
2019-03-19T21:09:14.508Z,7.37
2019-03-19T21:11:47.575Z,8.60
2019-03-19T21:14:20.469Z,7.90
2019-03-19T21:16:53.934Z,7.63
2019-03-19T21:19:27.119Z,7.27
2019-03-19T21:22:00.726Z,7.13
2019-03-19T21:24:33.859Z,8.23
2019-03-19T21:27:07.159Z,7.87
2019-03-19T21:29:39.982Z,7.63
2019-03-19T21:32:13.330Z,7.70
2019-03-19T21:34:46.765Z,7.37
2019-03-19T21:37:19.822Z,8.50
2019-03-19T21:39:53.197Z,7.27
2019-03-19T21:42:27.443Z,8.30
2019-03-19T21:45:00.450Z,9.83
2019-03-19T21:47:33.678Z,7.77
2019-03-19T21:50:08.647Z,8.77
2019-03-19T21:52:41.835Z,6.97
2019-03-19T21:55:14.993Z,6.43
2019-03-19T21:57:48.919Z,8.00
2019-03-19T22:00:22.217Z,8.70
2019-03-19T22:02:54.972Z,7.90
2019-03-19T22:05:28.019Z,9.67
2019-03-19T22:08:01.002Z,9.67
2019-03-19T22:10:34.120Z,10.03
2019-03-19T22:13:07.222Z,10.60
2019-03-19T22:15:40.050Z,10.60
2019-03-19T22:18:13.458Z,10.30
2019-03-19T22:20:47.602Z,11.93
2019-03-19T22:23:20.630Z,14.83
2019-03-19T22:25:54.058Z,12.13
2019-03-19T22:28:26.985Z,11.77
2019-03-19T22:30:59.783Z,10.37
2019-03-19T22:33:33.530Z,11.00
2019-03-19T22:36:06.878Z,12.00
2019-03-19T22:38:40.949Z,11.90
2019-03-19T22:41:13.813Z,10.23
2019-03-19T22:43:47.052Z,10.60
2019-03-19T22:46:21.987Z,11.13
2019-03-19T22:48:54.998Z,8.87
2019-03-19T22:51:29.035Z,11.27
2019-03-19T22:54:02.047Z,11.17
2019-03-19T22:56:35.115Z,11.70
2019-03-19T22:59:08.210Z,12.23
2019-03-19T23:01:41.038Z,11.57
2019-03-19T23:04:14.020Z,11.83
2019-03-19T23:06:47.239Z,12.07
2019-03-19T23:09:20.766Z,11.27
2019-03-19T23:11:53.825Z,11.80
2019-03-19T23:14:27.019Z,11.73
2019-03-19T23:16:59.944Z,10.67
2019-03-19T23:19:32.929Z,11.77
2019-03-19T23:22:05.905Z,10.80
2019-03-19T23:24:38.976Z,10.63
2019-03-19T23:27:11.774Z,10.33
2019-03-19T23:29:45.013Z,9.63
2019-03-19T23:32:18.166Z,9.53
2019-03-19T23:34:51.151Z,10.80
2019-03-19T23:37:24.343Z,11.37
2019-03-19T23:39:57.696Z,10.40
2019-03-19T23:42:30.796Z,10.80
2019-03-19T23:45:04.570Z,12.07
2019-03-19T23:47:37.541Z,9.97
2019-03-19T23:50:11.621Z,9.80
2019-03-19T23:52:44.521Z,10.07
2019-03-19T23:55:17.839Z,8.90
2019-03-19T23:57:52.519Z,9.17
